Time;durP1;ratioP1;P1;durP2;ratioP2;P2;SDS_P1;SDS_P2;PMS_P1;PMS_P2;Temp;Humidity;BMP_temperature;BMP_pressure;BME280_temperature;BME280_humidity;BME280_pressure;Samples;Min_cycle;Max_cycle;Signal;HPM_P1;HPM_P2
2022/11/21 00:00:24;;;;;;;30.30;16.60;;;1.00;99.90;;;;;;5029503;28;20506;-73
2022/11/21 00:02:50;;;;;;;27.75;16.70;;;0.90;99.90;;;;;;5058310;28;20060;-73
2022/11/21 00:05:16;;;;;;;29.03;16.03;;;0.90;99.90;;;;;;5066722;28;20145;-72
2022/11/21 00:07:43;;;;;;;28.57;16.50;;;0.90;99.90;;;;;;5045787;28;20548;-73
2022/11/21 00:10:08;;;;;;;27.73;17.10;;;0.80;99.90;;;;;;5028541;28;20044;-73
2022/11/21 00:12:34;;;;;;;29.13;17.02;;;0.80;99.90;;;;;;5044410;28;20039;-73
2022/11/21 00:15:00;;;;;;;31.00;17.97;;;0.90;99.90;;;;;;5057728;28;20048;-73
2022/11/21 00:17:26;;;;;;;31.87;17.93;;;0.80;99.90;;;;;;5044494;28;20039;-73
2022/11/21 00:19:51;;;;;;;30.60;18.27;;;0.80;99.90;;;;;;5061650;28;20044;-73
2022/11/21 00:22:17;;;;;;;31.57;17.43;;;0.80;99.90;;;;;;5062512;28;20068;-73
2022/11/21 00:24:43;;;;;;;32.07;18.47;;;0.80;99.90;;;;;;5058158;28;20040;-73
2022/11/21 00:27:08;;;;;;;31.20;17.93;;;0.80;99.90;;;;;;5065476;28;20040;-73
2022/11/21 00:29:34;;;;;;;29.57;17.30;;;0.80;99.90;;;;;;5056769;28;20080;-73
2022/11/21 00:32:00;;;;;;;30.20;18.00;;;0.80;99.90;;;;;;5048460;28;20058;-73
2022/11/21 00:34:25;;;;;;;29.97;17.83;;;0.80;99.90;;;;;;5040241;28;20094;-73
2022/11/21 00:36:51;;;;;;;28.13;17.00;;;0.80;99.90;;;;;;5047517;28;20040;-73
2022/11/21 00:39:17;;;;;;;30.47;18.23;;;0.80;99.90;;;;;;5036201;28;20036;-73
2022/11/21 00:41:42;;;;;;;29.53;17.07;;;0.70;99.90;;;;;;5043036;28;20374;-73
2022/11/21 00:44:08;;;;;;;27.70;16.90;;;0.70;99.90;;;;;;5040716;28;20098;-73
2022/11/21 00:46:34;;;;;;;33.13;17.90;;;0.70;99.90;;;;;;5042906;28;20068;-73
2022/11/21 00:48:59;;;;;;;26.67;17.43;;;0.70;99.90;;;;;;5042424;28;20045;-73
2022/11/21 00:51:25;;;;;;;29.27;17.63;;;0.70;99.90;;;;;;5038303;28;20044;-73
2022/11/21 00:53:51;;;;;;;30.03;17.40;;;0.70;99.90;;;;;;5025777;28;20041;-73
2022/11/21 00:56:17;;;;;;;30.07;18.10;;;0.70;99.90;;;;;;5027824;28;20444;-73
2022/11/21 00:58:42;;;;;;;31.50;19.23;;;0.70;99.90;;;;;;5058885;28;20149;-73
2022/11/21 01:01:11;;;;;;;29.23;17.80;;;0.70;99.90;;;;;;5047625;28;20040;-73
2022/11/21 01:03:37;;;;;;;30.65;18.75;;;0.70;99.90;;;;;;5036479;28;20048;-73
2022/11/21 01:06:12;;;;;;;30.95;17.55;;;0.70;99.90;;;;;;5064937;28;20153;-73
2022/11/21 01:08:40;;;;;;;30.45;16.80;;;0.70;99.90;;;;;;5059859;28;20040;-73
2022/11/21 01:11:09;;;;;;;29.27;17.00;;;0.70;99.90;;;;;;5064641;28;20368;-73
2022/11/21 01:13:35;;;;;;;27.50;16.48;;;0.70;99.90;;;;;;5059438;28;20096;-73
2022/11/21 01:16:23;;;;;;;32.38;17.90;;;0.70;99.90;;;;;;5023877;28;20789;-73
2022/11/21 01:18:49;;;;;;;31.90;17.80;;;0.70;99.90;;;;;;5064472;28;20055;-73
2022/11/21 01:21:21;;;;;;;30.20;17.48;;;0.70;99.90;;;;;;5041244;28;20040;-73
2022/11/21 01:23:47;;;;;;;30.73;18.13;;;0.70;99.90;;;;;;5065314;28;20438;-73
2022/11/21 01:26:16;;;;;;;31.23;17.80;;;0.80;99.90;;;;;;5025865;28;20079;-73
2022/11/21 01:28:42;;;;;;;30.40;17.85;;;0.80;99.90;;;;;;5033601;28;20037;-73
2022/11/21 01:31:13;;;;;;;31.83;18.63;;;0.80;99.90;;;;;;5064258;28;20249;-73
2022/11/21 01:33:40;;;;;;;28.83;16.88;;;0.80;99.90;;;;;;5068299;28;20724;-73
2022/11/21 01:36:15;;;;;;;30.85;18.35;;;0.80;99.90;;;;;;5041412;28;20147;-73
2022/11/21 01:38:44;;;;;;;29.33;17.83;;;0.80;99.90;;;;;;5040816;28;20128;-73
2022/11/21 01:41:11;;;;;;;34.45;18.30;;;0.80;99.90;;;;;;5060839;28;20048;-73
2022/11/21 01:43:38;;;;;;;30.00;19.13;;;0.80;99.90;;;;;;5021983;28;20083;-73
2022/11/21 01:46:07;;;;;;;29.13;17.80;;;0.80;99.90;;;;;;5036398;28;20413;-73
2022/11/21 01:48:47;;;;;;;32.40;17.98;;;0.80;99.90;;;;;;5054767;28;20589;-74
2022/11/21 01:51:19;;;;;;;31.20;18.88;;;0.80;99.90;;;;;;5052128;28;20044;-73
2022/11/21 01:53:52;;;;;;;31.30;17.88;;;0.80;99.90;;;;;;5042681;28;20139;-73
2022/11/21 01:56:19;;;;;;;32.00;17.92;;;0.80;99.90;;;;;;5063586;28;20157;-73
2022/11/21 01:58:46;;;;;;;32.00;17.98;;;0.70;99.90;;;;;;5043569;28;20123;-73
2022/11/21 02:01:12;;;;;;;30.75;18.45;;;0.70;99.90;;;;;;5047567;28;20148;-73
2022/11/21 02:03:40;;;;;;;33.25;18.73;;;0.70;99.90;;;;;;5036018;28;20128;-73
2022/11/21 02:06:08;;;;;;;33.00;19.10;;;0.70;99.90;;;;;;5053025;28;20044;-73
2022/11/21 02:08:35;;;;;;;31.35;18.92;;;0.70;99.90;;;;;;5054119;28;20048;-73
2022/11/21 02:11:27;;;;;;;28.60;17.05;;;0.70;99.90;;;;;;5064250;28;20302;-73
2022/11/21 02:13:53;;;;;;;29.58;17.92;;;0.60;99.90;;;;;;5034501;28;20127;-73
2022/11/21 02:16:19;;;;;;;28.23;17.27;;;0.60;99.90;;;;;;5046284;28;20503;-73
2022/11/21 02:18:45;;;;;;;30.80;18.27;;;0.60;99.90;;;;;;5022020;28;20127;-73
2022/11/21 02:21:25;;;;;;;30.73;18.20;;;0.50;99.90;;;;;;5042434;28;20035;-73
2022/11/21 02:23:57;;;;;;;29.10;17.67;;;0.40;99.90;;;;;;5059629;28;20515;-73
2022/11/21 02:26:22;;;;;;;28.13;17.30;;;0.20;99.90;;;;;;5063412;28;20055;-73
2022/11/21 02:28:48;;;;;;;29.67;17.07;;;0.10;99.90;;;;;;5045432;28;20132;-73
2022/11/21 02:31:14;;;;;;;30.80;17.03;;;0.00;99.90;;;;;;5040065;28;20599;-73
2022/11/21 02:33:40;;;;;;;30.50;18.13;;;-0.10;99.90;;;;;;5063044;28;20446;-73
2022/11/21 02:36:42;;;;;;;27.77;17.27;;;-0.20;99.90;;;;;;5046012;28;20049;-73
2022/11/21 02:39:20;;;;;;;32.00;17.70;;;-0.30;99.90;;;;;;5042095;28;20492;-73
2022/11/21 02:42:11;;;;;;;32.13;18.10;;;-0.30;99.90;;;;;;5058458;28;20075;-73
2022/11/21 02:44:59;;;;;;;32.08;17.88;;;-0.40;99.90;;;;;;5063062;28;20052;-73
2022/11/21 02:47:26;;;;;;;30.40;17.65;;;-0.50;99.90;;;;;;5037334;28;20037;-73
2022/11/21 02:50:10;;;;;;;29.40;17.48;;;-0.60;99.90;;;;;;5057874;28;20556;-73
2022/11/21 02:52:36;;;;;;;28.15;17.23;;;-0.70;99.90;;;;;;5040750;28;20068;-73
2022/11/21 02:55:01;;;;;;;29.70;17.10;;;-0.80;99.90;;;;;;5046543;28;20057;-73
2022/11/21 02:57:27;;;;;;;31.60;17.63;;;-0.90;99.90;;;;;;5061881;28;20427;-73
2022/11/21 02:59:53;;;;;;;30.00;17.27;;;-1.00;99.90;;;;;;5062177;28;20048;-73
2022/11/21 03:02:19;;;;;;;27.37;16.70;;;-1.10;99.90;;;;;;5026052;28;20031;-73
2022/11/21 03:04:44;;;;;;;30.70;17.17;;;-1.20;99.90;;;;;;5063901;28;20489;-73
2022/11/21 03:07:10;;;;;;;31.27;16.87;;;-1.20;99.90;;;;;;5046199;28;20044;-73
2022/11/21 03:09:36;;;;;;;26.17;16.17;;;-1.30;99.90;;;;;;5046392;28;20071;-73
2022/11/21 03:12:09;;;;;;;28.13;15.90;;;-1.40;99.90;;;;;;5066979;28;20558;-73
2022/11/21 03:14:35;;;;;;;26.15;15.95;;;-1.40;99.90;;;;;;5037773;28;20505;-73
2022/11/21 03:17:02;;;;;;;30.13;17.50;;;-1.40;99.90;;;;;;5066213;28;20098;-73
2022/11/21 03:19:27;;;;;;;31.98;18.38;;;-1.50;99.90;;;;;;5046955;28;20494;-73
2022/11/21 03:21:53;;;;;;;32.10;18.13;;;-1.40;99.90;;;;;;5062020;28;20083;-73
2022/11/21 03:24:19;;;;;;;29.90;17.35;;;-1.40;99.90;;;;;;5062591;28;20699;-73
2022/11/21 03:26:45;;;;;;;33.13;17.83;;;-1.40;99.90;;;;;;5038439;28;20059;-73
2022/11/21 03:29:11;;;;;;;31.97;18.57;;;-1.30;99.90;;;;;;5024700;28;20366;-73
2022/11/21 03:31:36;;;;;;;34.00;18.90;;;-1.20;99.90;;;;;;5043653;28;20087;-73
2022/11/21 03:34:02;;;;;;;33.73;18.93;;;-1.20;99.90;;;;;;5046092;28;20143;-73
2022/11/21 03:36:29;;;;;;;32.80;19.23;;;-1.10;99.90;;;;;;5044773;28;20505;-73
2022/11/21 03:38:58;;;;;;;35.58;19.48;;;-1.00;99.90;;;;;;5057503;28;20037;-73
2022/11/21 03:41:28;;;;;;;34.78;18.70;;;-0.90;99.90;;;;;;5066217;28;20039;-73
2022/11/21 03:44:07;;;;;;;35.70;20.95;;;-0.90;99.90;;;;;;5042223;28;20447;-73
2022/11/21 03:46:36;;;;;;;36.45;19.20;;;-0.80;99.90;;;;;;5054868;28;20040;-73
2022/11/21 03:49:02;;;;;;;34.10;19.35;;;-0.70;99.90;;;;;;5062046;28;20071;-73
2022/11/21 03:51:28;;;;;;;34.25;19.95;;;-0.70;99.90;;;;;;5038267;28;20049;-73
2022/11/21 03:53:54;;;;;;;34.27;18.93;;;-0.60;99.90;;;;;;5065286;28;20039;-73
2022/11/21 03:56:20;;;;;;;32.37;18.13;;;-0.60;99.90;;;;;;5029122;28;20307;-73
2022/11/21 03:58:46;;;;;;;33.45;19.77;;;-0.60;99.90;;;;;;5025738;28;20040;-73
2022/11/21 04:01:12;;;;;;;35.88;19.67;;;-0.60;99.90;;;;;;5047119;28;20037;-73
2022/11/21 04:03:39;;;;;;;32.70;18.20;;;-0.60;99.90;;;;;;5039109;28;20094;-73
2022/11/21 04:06:05;;;;;;;35.67;19.58;;;-0.60;99.90;;;;;;5045985;28;20284;-73
2022/11/21 04:08:31;;;;;;;34.07;19.37;;;-0.60;99.90;;;;;;5044810;28;20052;-73
2022/11/21 04:10:57;;;;;;;37.37;20.10;;;-0.60;99.90;;;;;;5041583;28;20191;-73
2022/11/21 04:13:23;;;;;;;29.60;18.50;;;-0.60;99.90;;;;;;5042560;28;20508;-73
2022/11/21 04:15:49;;;;;;;34.60;19.20;;;-0.60;99.90;;;;;;5042188;28;20437;-73
2022/11/21 04:18:15;;;;;;;37.10;19.33;;;-0.70;99.90;;;;;;5029477;28;20124;-73
2022/11/21 04:20:41;;;;;;;35.17;20.37;;;-0.70;99.90;;;;;;5042088;28;20147;-73
2022/11/21 04:23:07;;;;;;;33.45;19.20;;;-0.80;99.90;;;;;;5041585;28;20041;-73
2022/11/21 04:25:33;;;;;;;37.77;19.77;;;-0.90;99.90;;;;;;5013435;28;20047;-73
2022/11/21 04:28:00;;;;;;;31.40;18.93;;;-1.00;99.90;;;;;;5012254;28;20049;-73
2022/11/21 04:30:27;;;;;;;32.17;17.70;;;-1.00;99.90;;;;;;5039983;28;20376;-73
2022/11/21 04:32:53;;;;;;;30.13;17.90;;;-1.20;99.90;;;;;;5010535;28;20421;-73
2022/11/21 04:35:20;;;;;;;32.17;18.38;;;-1.20;99.90;;;;;;5039857;28;20465;-73
2022/11/21 04:37:46;;;;;;;34.25;18.02;;;-1.30;99.90;;;;;;5019761;28;20460;-74
2022/11/21 04:40:13;;;;;;;34.97;19.57;;;-1.40;99.90;;;;;;5044719;28;20048;-73
2022/11/21 04:42:44;;;;;;;33.40;18.13;;;-1.50;99.90;;;;;;5038172;28;20045;-73
2022/11/21 04:45:11;;;;;;;31.80;18.35;;;-1.50;99.90;;;;;;5039857;28;20127;-73
2022/11/21 04:47:43;;;;;;;34.47;18.98;;;-1.60;99.90;;;;;;5042120;28;20115;-72
2022/11/21 04:50:10;;;;;;;32.88;18.25;;;-1.60;99.90;;;;;;5045286;28;20106;-72
2022/11/21 04:52:36;;;;;;;37.10;20.20;;;-1.70;99.90;;;;;;5029007;28;20040;-72
2022/11/21 04:55:03;;;;;;;38.60;21.10;;;-1.70;99.90;;;;;;5054511;28;20685;-72
2022/11/21 04:57:30;;;;;;;33.92;17.23;;;-1.80;99.90;;;;;;5048204;28;20064;-73
2022/11/21 04:59:57;;;;;;;35.92;19.45;;;-1.80;99.90;;;;;;5044256;28;20115;-73
2022/11/21 05:02:22;;;;;;;34.15;19.08;;;-1.90;99.90;;;;;;5065438;28;20120;-73
2022/11/21 05:04:48;;;;;;;35.43;18.80;;;-1.90;99.90;;;;;;5036475;28;20464;-73
2022/11/21 05:07:14;;;;;;;35.83;19.13;;;-2.00;99.90;;;;;;5063996;28;20423;-73
2022/11/21 05:09:40;;;;;;;37.55;19.85;;;-2.00;99.90;;;;;;5064631;28;20129;-72
2022/11/21 05:14:52;;;;;;;35.05;18.55;;;-2.00;99.90;;;;;;5060238;28;20099;-72
2022/11/21 05:17:18;;;;;;;38.13;19.57;;;-2.10;99.90;;;;;;5064362;28;20095;-73
2022/11/21 05:19:44;;;;;;;38.50;20.13;;;-2.10;99.90;;;;;;5042915;28;20428;-73
2022/11/21 05:22:10;;;;;;;36.07;19.63;;;-2.10;99.90;;;;;;5044109;28;20280;-73
2022/11/21 05:24:35;;;;;;;35.60;19.97;;;-2.20;99.90;;;;;;5064587;28;20102;-73
2022/11/21 05:27:01;;;;;;;37.53;20.87;;;-2.20;99.90;;;;;;5043032;28;20064;-73
2022/11/21 05:29:27;;;;;;;40.07;20.60;;;-2.30;99.90;;;;;;5058337;28;20048;-73
2022/11/21 05:31:52;;;;;;;34.47;18.70;;;-2.30;99.90;;;;;;5059050;28;20121;-72
2022/11/21 05:34:18;;;;;;;38.37;20.03;;;-2.20;99.90;;;;;;5034487;28;20045;-73
2022/11/21 05:36:44;;;;;;;37.83;20.30;;;-2.20;99.90;;;;;;5058362;28;20045;-73
2022/11/21 05:39:09;;;;;;;36.83;19.67;;;-2.30;99.90;;;;;;5058717;28;20408;-72
2022/11/21 05:41:35;;;;;;;39.43;19.80;;;-2.30;99.90;;;;;;5081098;28;20328;-73
2022/11/21 05:44:01;;;;;;;41.63;21.50;;;-2.30;99.90;;;;;;5064000;28;20076;-73
2022/11/21 05:46:26;;;;;;;36.53;20.20;;;-2.30;99.90;;;;;;5048743;28;20130;-73
2022/11/21 05:48:54;;;;;;;39.93;20.40;;;-2.30;99.90;;;;;;5025209;28;20097;-73
2022/11/21 05:51:20;;;;;;;45.22;22.67;;;-2.30;99.90;;;;;;5058098;28;20055;-73
2022/11/21 05:53:47;;;;;;;39.78;21.75;;;-2.30;99.90;;;;;;5047279;28;20117;-73
2022/11/21 05:56:15;;;;;;;42.72;22.48;;;-2.40;99.90;;;;;;5054895;28;20515;-73
2022/11/21 05:58:41;;;;;;;43.28;22.30;;;-2.40;99.90;;;;;;5058597;28;20044;-73
2022/11/21 06:01:09;;;;;;;39.92;22.02;;;-2.40;99.90;;;;;;5042791;28;20471;-73
2022/11/21 06:03:37;;;;;;;39.17;21.58;;;-2.50;99.90;;;;;;5059403;28;20033;-73
2022/11/21 06:06:06;;;;;;;42.50;23.20;;;-2.50;99.90;;;;;;5055776;28;20289;-73
2022/11/21 06:08:43;;;;;;;41.95;21.75;;;-2.50;99.90;;;;;;5062135;28;20028;-73
2022/11/21 06:11:13;;;;;;;39.75;21.45;;;-2.50;99.90;;;;;;5042882;28;20155;-73
2022/11/21 06:13:39;;;;;;;41.10;22.13;;;-2.50;99.90;;;;;;5055401;28;20075;-73
2022/11/21 06:16:07;;;;;;;39.80;20.70;;;-2.50;99.90;;;;;;5025980;28;20151;-73
2022/11/21 06:18:44;;;;;;;41.83;21.27;;;-2.50;99.90;;;;;;5060224;28;20569;-73
2022/11/21 06:21:24;;;;;;;41.05;20.42;;;-2.50;99.90;;;;;;5055107;28;20040;-72
2022/11/21 06:23:52;;;;;;;43.20;21.08;;;-2.50;99.90;;;;;;5043232;28;20105;-72
2022/11/21 06:26:20;;;;;;;44.50;21.65;;;-2.50;99.90;;;;;;5054331;28;20053;-72
2022/11/21 06:28:46;;;;;;;44.35;22.77;;;-2.50;99.90;;;;;;5035586;28;20083;-73
2022/11/21 06:31:14;;;;;;;43.88;22.35;;;-2.50;99.90;;;;;;5059665;28;20053;-73
2022/11/21 06:33:41;;;;;;;44.08;22.08;;;-2.50;99.90;;;;;;5040737;28;20455;-73
2022/11/21 06:36:16;;;;;;;46.67;22.35;;;-2.40;99.90;;;;;;5035428;28;20067;-72
2022/11/21 06:38:43;;;;;;;45.72;22.02;;;-2.40;99.90;;;;;;5062149;28;20444;-73
2022/11/21 06:41:24;;;;;;;45.00;21.02;;;-2.40;99.90;;;;;;5046052;28;20262;-73
2022/11/21 06:43:49;;;;;;;46.08;21.60;;;-2.40;99.90;;;;;;5041308;28;20501;-73
2022/11/21 06:46:16;;;;;;;44.13;21.40;;;-2.40;99.90;;;;;;5041832;28;20075;-73
2022/11/21 06:48:42;;;;;;;41.72;21.48;;;-2.30;99.90;;;;;;5054711;28;20076;-73
2022/11/21 06:51:17;;;;;;;47.03;21.65;;;-2.30;99.90;;;;;;5051178;28;20555;-73
2022/11/21 06:53:43;;;;;;;47.92;23.20;;;-2.30;99.90;;;;;;5051818;28;20396;-73
2022/11/21 06:56:09;;;;;;;49.28;23.50;;;-2.20;99.90;;;;;;5055778;28;20437;-73
2022/11/21 06:58:35;;;;;;;49.73;23.43;;;-2.20;99.90;;;;;;5042044;28;20075;-73
2022/11/21 07:01:06;;;;;;;52.28;23.90;;;-2.10;99.90;;;;;;5055294;28;20283;-73
2022/11/21 07:03:33;;;;;;;51.60;23.55;;;-2.00;99.90;;;;;;5045910;28;20047;-73
2022/11/21 07:06:00;;;;;;;46.88;23.33;;;-2.00;99.90;;;;;;5062982;28;20037;-73
2022/11/21 07:08:28;;;;;;;49.35;23.33;;;-2.00;99.90;;;;;;5058444;28;20445;-73
2022/11/21 07:10:54;;;;;;;46.25;23.88;;;-2.00;99.90;;;;;;5033187;28;20493;-73
2022/11/21 07:13:22;;;;;;;56.08;23.77;;;-1.90;99.90;;;;;;5059671;28;20040;-72
2022/11/21 07:15:51;;;;;;;50.45;24.48;;;-1.90;99.90;;;;;;5048227;28;20424;-73
2022/11/21 07:18:17;;;;;;;56.42;24.58;;;-1.90;99.90;;;;;;5056741;28;20120;-73
2022/11/21 07:20:43;;;;;;;54.88;24.67;;;-1.90;99.90;;;;;;5031438;28;20048;-73
2022/11/21 07:23:09;;;;;;;48.67;23.73;;;-1.80;99.90;;;;;;5041022;28;20735;-73
2022/11/21 07:25:35;;;;;;;54.83;25.13;;;-1.80;99.90;;;;;;5053395;28;20136;-73
2022/11/21 07:28:01;;;;;;;53.03;24.42;;;-1.70;99.90;;;;;;5052970;28;20048;-73
2022/11/21 07:30:27;;;;;;;60.13;25.35;;;-1.70;99.90;;;;;;5041000;28;20238;-73
2022/11/21 07:32:56;;;;;;;63.40;25.73;;;-1.50;99.90;;;;;;5039106;28;20433;-73
2022/11/21 07:35:22;;;;;;;61.50;25.52;;;-1.40;99.90;;;;;;5045271;28;20048;-73
2022/11/21 07:37:48;;;;;;;83.07;28.00;;;-1.40;99.90;;;;;;5046030;28;20051;-73
2022/11/21 07:40:14;;;;;;;70.47;26.50;;;-1.30;99.90;;;;;;5065765;28;20045;-73
2022/11/21 07:42:39;;;;;;;82.35;26.27;;;-1.20;99.90;;;;;;5027587;28;20101;-73
2022/11/21 07:45:06;;;;;;;65.33;24.93;;;-1.20;99.90;;;;;;5024405;28;20412;-73
2022/11/21 07:47:31;;;;;;;104.97;27.52;;;-1.10;99.90;;;;;;5047983;28;20040;-73
2022/11/21 07:49:57;;;;;;;107.67;25.43;;;-1.10;99.90;;;;;;5040767;28;20055;-73
2022/11/21 07:52:24;;;;;;;103.07;25.17;;;-1.00;99.90;;;;;;5047488;28;20472;-73
2022/11/21 07:54:50;;;;;;;103.68;25.42;;;-1.00;99.90;;;;;;5046058;28;20056;-73
2022/11/21 07:57:16;;;;;;;69.70;22.58;;;-0.90;99.90;;;;;;5041739;28;20045;-73
2022/11/21 07:59:43;;;;;;;62.83;21.93;;;-0.90;99.90;;;;;;5063601;28;20045;-73
2022/11/21 08:02:29;;;;;;;68.80;21.92;;;-0.80;99.90;;;;;;5047256;28;20450;-73
2022/11/21 08:04:54;;;;;;;111.50;23.52;;;-0.70;99.90;;;;;;5038052;28;20087;-73
2022/11/21 08:07:21;;;;;;;72.33;21.00;;;-0.70;99.90;;;;;;5055982;28;20079;-73
2022/11/21 08:09:48;;;;;;;50.55;19.73;;;-0.70;99.90;;;;;;5060167;28;20056;-73
2022/11/21 08:12:14;;;;;;;63.47;19.27;;;-0.60;99.90;;;;;;5022331;28;20387;-73
2022/11/21 08:14:41;;;;;;;85.85;21.38;;;-0.60;99.90;;;;;;5033883;28;20049;-73
2022/11/21 08:17:07;;;;;;;79.10;19.85;;;-0.60;99.90;;;;;;5058671;28;20135;-73
2022/11/21 08:19:33;;;;;;;72.65;20.20;;;-0.60;99.90;;;;;;5044080;28;20441;-74
2022/11/21 08:22:00;;;;;;;68.80;21.55;;;-0.60;99.90;;;;;;5043351;28;20055;-73
2022/11/21 08:24:26;;;;;;;67.03;20.33;;;-0.50;99.90;;;;;;5045061;28;20043;-73
2022/11/21 08:26:52;;;;;;;82.53;20.70;;;-0.50;99.90;;;;;;5056694;28;20040;-75
2022/11/21 08:29:18;;;;;;;58.08;18.73;;;-0.50;99.90;;;;;;5041577;28;20136;-74
2022/11/21 08:31:44;;;;;;;43.00;15.97;;;-0.40;99.90;;;;;;5061064;28;20135;-73
2022/11/21 08:34:10;;;;;;;46.95;18.45;;;-0.40;99.90;;;;;;5055194;28;20535;-74
2022/11/21 08:36:36;;;;;;;44.25;17.40;;;-0.40;99.90;;;;;;5046546;28;20045;-73
2022/11/21 08:39:02;;;;;;;40.97;17.60;;;-0.30;99.90;;;;;;5060152;28;20521;-74
2022/11/21 08:44:12;;;;;;;38.17;16.27;;;-0.30;99.90;;;;;;5060371;28;20049;-73
2022/11/21 08:46:38;;;;;;;27.47;14.70;;;-0.20;99.90;;;;;;5045492;28;20045;-73
2022/11/21 08:49:05;;;;;;;31.27;15.23;;;-0.20;99.90;;;;;;5045455;28;20445;-73
2022/11/21 08:51:31;;;;;;;29.35;13.38;;;-0.10;99.90;;;;;;5038013;28;20084;-74
2022/11/21 08:53:56;;;;;;;23.60;13.33;;;-0.10;99.90;;;;;;5021786;28;20477;-73
2022/11/21 08:56:23;;;;;;;30.70;13.37;;;0.00;99.90;;;;;;5053988;28;20131;-73
2022/11/21 08:58:48;;;;;;;29.13;12.52;;;-0.10;99.90;;;;;;5027535;28;20036;-73
2022/11/21 09:01:14;;;;;;;25.60;12.30;;;0.00;99.90;;;;;;5049301;28;20420;-73
2022/11/21 09:03:40;;;;;;;27.73;13.37;;;0.00;99.90;;;;;;5032066;28;20589;-74
2022/11/21 09:06:06;;;;;;;23.67;12.10;;;0.00;99.90;;;;;;5043548;28;20147;-73
2022/11/21 09:08:32;;;;;;;25.47;11.93;;;0.00;99.90;;;;;;5063398;28;20120;-73
2022/11/21 09:11:02;;;;;;;24.45;12.65;;;0.10;99.90;;;;;;5057368;28;20048;-73
2022/11/21 09:13:28;;;;;;;25.30;12.63;;;0.10;99.90;;;;;;5027127;28;20041;-72
2022/11/21 09:18:37;;;;;;;23.65;12.48;;;0.20;99.90;;;;;;5044824;28;20044;-73
2022/11/21 09:21:03;;;;;;;25.33;12.13;;;0.20;99.90;;;;;;5022830;28;20209;-74
2022/11/21 09:23:29;;;;;;;23.17;11.77;;;0.30;99.90;;;;;;5040567;28;20052;-73
2022/11/21 09:25:55;;;;;;;20.97;11.70;;;0.30;99.90;;;;;;5056405;28;20040;-74
2022/11/21 09:28:20;;;;;;;20.60;11.17;;;0.40;99.90;;;;;;5062186;28;20044;-74
2022/11/21 09:30:46;;;;;;;23.17;13.10;;;0.50;99.90;;;;;;5025803;28;20120;-74
2022/11/21 09:33:15;;;;;;;20.87;12.03;;;0.50;99.90;;;;;;5045080;28;20063;-73
2022/11/21 09:35:41;;;;;;;18.00;10.90;;;0.60;99.90;;;;;;5052299;28;20053;-73
2022/11/21 09:38:07;;;;;;;19.50;11.43;;;0.70;99.90;;;;;;5039625;28;20048;-73
2022/11/21 09:40:34;;;;;;;22.87;12.33;;;0.90;99.90;;;;;;5029710;28;20045;-73
2022/11/21 09:43:24;;;;;;;20.13;11.80;;;1.10;99.90;;;;;;5038649;28;20079;-73
2022/11/21 09:45:55;;;;;;;19.45;10.73;;;1.20;99.90;;;;;;5073542;28;20041;-73
2022/11/21 09:48:32;;;;;;;18.45;10.25;;;1.20;99.90;;;;;;5038729;28;20052;-73
2022/11/21 09:51:03;;;;;;;19.38;10.75;;;1.30;99.90;;;;;;5060655;28;20047;-73
2022/11/21 09:53:44;;;;;;;20.30;11.25;;;1.30;99.90;;;;;;5052961;28;20047;-74
2022/11/21 09:56:14;;;;;;;16.77;9.38;;;1.40;99.90;;;;;;5053246;28;20060;-74
2022/11/21 09:59:07;;;;;;;14.02;9.18;;;1.40;99.90;;;;;;5047263;28;20044;-73
2022/11/21 10:01:32;;;;;;;16.35;9.70;;;1.40;99.90;;;;;;5053482;28;20047;-74
2022/11/21 10:04:01;;;;;;;18.03;9.73;;;1.40;99.90;;;;;;5026770;28;20066;-74
2022/11/21 10:06:55;;;;;;;15.35;9.50;;;1.40;99.90;;;;;;5061069;28;20079;-73
2022/11/21 10:09:53;;;;;;;15.38;9.32;;;1.40;99.90;;;;;;5057642;28;20071;-74
2022/11/21 10:12:53;;;;;;;16.52;9.57;;;1.50;99.90;;;;;;5050640;28;20071;-74
2022/11/21 10:15:19;;;;;;;18.70;9.98;;;1.70;99.90;;;;;;5040383;28;20048;-73
2022/11/21 10:17:59;;;;;;;19.63;11.07;;;1.80;99.90;;;;;;5042213;28;20045;-72
2022/11/21 10:20:30;;;;;;;16.17;10.10;;;2.00;99.90;;;;;;5054146;28;20280;-73
2022/11/21 10:23:20;;;;;;;16.13;9.88;;;2.10;99.90;;;;;;5053218;28;20045;-73
2022/11/21 10:25:59;;;;;;;15.05;9.18;;;2.30;99.90;;;;;;5056208;28;20470;-73
2022/11/21 10:28:45;;;;;;;14.88;9.30;;;2.50;99.90;;;;;;5058719;28;20040;-72
2022/11/21 10:31:12;;;;;;;;;;;2.60;99.90;;;;;;5057732;28;20094;-72
2022/11/21 10:33:39;;;;;;;;;;;2.70;99.90;;;;;;5062237;28;19927;-73
2022/11/21 10:36:08;;;;;;;;;;;3.00;99.90;;;;;;5056887;28;20403;-73
2022/11/21 10:38:36;;;;;;;;;;;3.20;99.90;;;;;;5046513;28;19928;-73
2022/11/21 10:41:11;;;;;;;;;;;3.40;99.90;;;;;;5061029;28;20338;-73
2022/11/21 10:46:26;;;;;;;;;;;3.90;99.90;;;;;;5059708;28;19970;-73
2022/11/21 10:48:57;;;;;;;;;;;4.00;99.90;;;;;;5036330;28;19916;-73
2022/11/21 10:51:44;;;;;;;;;;;4.20;99.90;;;;;;5047719;28;19921;-73
2022/11/21 10:57:00;;;;;;;;;;;4.40;99.90;;;;;;5054874;28;19924;-73
2022/11/21 10:59:27;;;;;;;;;;;4.50;99.90;;;;;;5066995;28;20292;-72
2022/11/21 11:01:54;;;;;;;;;;;4.60;99.90;;;;;;5047995;28;19920;-72
2022/11/21 11:04:20;;;;;;;;;;;4.60;99.90;;;;;;5054352;28;19920;-72
2022/11/21 11:06:46;;;;;;;;;;;4.60;99.90;;;;;;5056760;28;20391;-74
2022/11/21 11:09:32;;;;;;;;;;;4.50;99.90;;;;;;5054186;28;20387;-74
2022/11/21 11:12:16;;;;;;;;;;;4.50;99.90;;;;;;5064019;28;20300;-73
2022/11/21 11:14:48;;;;;;;;;;;4.40;99.90;;;;;;5065820;28;19969;-74
2022/11/21 11:17:14;;;;;;;;;;;4.30;99.90;;;;;;5045721;28;19986;-74
2022/11/21 11:19:58;;;;;;;;;;;4.20;99.90;;;;;;5065752;28;20287;-74
2022/11/21 11:22:28;;;;;;;;;;;4.10;99.90;;;;;;5058507;28;19943;-74
2022/11/21 11:24:53;;;;;;;;;;;4.10;99.90;;;;;;5044875;28;19916;-75
2022/11/21 11:27:25;;;;;;;;;;;4.00;99.90;;;;;;5059104;28;19966;-74
2022/11/21 11:29:50;;;;;;;;;;;3.90;99.90;;;;;;5051447;28;20320;-74
2022/11/21 11:32:19;;;;;;;;;;;3.80;99.90;;;;;;5078193;28;19979;-74
2022/11/21 11:34:48;;;;;;;;;;;3.70;99.90;;;;;;5057878;28;19924;-73
2022/11/21 11:37:28;;;;;;;;;;;3.60;99.90;;;;;;5045121;28;19932;-73
2022/11/21 11:40:04;;;;;;;;;;;3.60;99.90;;;;;;5049952;28;19920;-75
2022/11/21 11:48:14;;;;;;;;;;;3.50;99.90;;;;;;5061254;28;19971;-73
2022/11/21 11:50:39;;;;;;;;;;;3.50;99.90;;;;;;5067786;28;20018;-74
2022/11/21 11:53:05;;;;;;;;;;;3.50;99.90;;;;;;5055734;28;19921;-74
2022/11/21 11:55:36;;;;;;;;;;;3.50;99.90;;;;;;5066604;28;19920;-74
2022/11/21 11:58:05;;;;;;;;;;;3.60;99.90;;;;;;5065150;28;20376;-74
2022/11/21 12:00:38;;;;;;;;;;;3.70;99.90;;;;;;5063486;28;19927;-74
2022/11/21 12:03:24;;;;;;;;;;;3.80;99.90;;;;;;5066957;28;20345;-75
2022/11/21 12:06:16;;;;;;;;;;;3.80;99.90;;;;;;5053740;28;19920;-75
2022/11/21 12:08:58;;;;;;;;;;;4.00;99.90;;;;;;5039636;28;20266;-74
2022/11/21 12:17:18;;;;;;;;;;;4.00;99.90;;;;;;5060371;28;20007;-74
2022/11/21 12:19:45;;;;;;;;;;;3.90;99.90;;;;;;5058597;28;19935;-74
2022/11/21 12:22:10;;;;;;;;;;;3.80;99.90;;;;;;5062563;28;20317;-73
2022/11/21 12:24:36;;;;;;;;;;;3.70;99.90;;;;;;5060782;28;20018;-73
2022/11/21 12:27:21;;;;;;;;;;;3.70;99.90;;;;;;5061394;28;19921;-73
2022/11/21 12:29:49;;;;;;;;;;;3.60;99.90;;;;;;5057203;28;20341;-74
2022/11/21 12:32:23;;;;;;;;;;;3.60;99.90;;;;;;5043802;28;19920;-73
2022/11/21 12:34:55;;;;;;;;;;;3.60;99.90;;;;;;5065051;28;19916;-73
2022/11/21 12:37:20;;;;;;;;;;;3.50;99.90;;;;;;5055215;28;19925;-73
2022/11/21 12:39:49;;;;;;;;;;;3.50;99.90;;;;;;5076994;28;19939;-74
2022/11/21 12:42:49;;;;;;;;;;;3.50;99.90;;;;;;5053025;28;19968;-73
2022/11/21 12:45:27;;;;;;;;;;;3.50;99.90;;;;;;5059212;28;19924;-74
2022/11/21 12:56:54;;;;;;;;;;;3.50;99.90;;;;;;5065436;28;20131;-73
2022/11/21 12:59:21;;;;;;;;;;;3.50;99.90;;;;;;5059138;28;20014;-73
2022/11/21 13:02:11;;;;;;;;;;;3.50;99.90;;;;;;5081748;28;19920;-74
2022/11/21 13:04:39;;;;;;;;;;;3.60;99.90;;;;;;5060673;28;19955;-74
2022/11/21 13:07:05;;;;;;;;;;;3.60;99.90;;;;;;5066097;28;19920;-74
2022/11/21 13:09:34;;;;;;;;;;;3.70;99.90;;;;;;5063926;28;19920;-73
2022/11/21 13:12:06;;;;;;;;;;;3.80;99.90;;;;;;5043983;28;20003;-73
2022/11/21 13:14:35;;;;;;;;;;;3.80;99.90;;;;;;5062075;28;19916;-73
2022/11/21 13:17:10;;;;;;;;;;;3.90;99.90;;;;;;5061395;28;19920;-74
2022/11/21 13:19:41;;;;;;;;;;;3.90;99.90;;;;;;5061572;28;19920;-73
2022/11/21 13:22:26;;;;;;;;;;;4.00;99.90;;;;;;5061931;28;19981;-73
2022/11/21 13:24:53;;;;;;;;;;;4.10;99.90;;;;;;5060860;28;19923;-74
2022/11/21 13:27:26;;;;;;;;;;;4.30;99.90;;;;;;5061483;28;19920;-74
2022/11/21 13:30:08;;;;;;;;;;;4.40;99.90;;;;;;5048194;28;19920;-73
2022/11/21 13:32:41;;;;;;;;;;;4.50;99.90;;;;;;5060494;28;19932;-73
2022/11/21 13:35:30;;;;;;;;;;;4.40;99.90;;;;;;5063231;28;19927;-74
2022/11/21 13:38:05;;;;;;;;;;;4.30;99.90;;;;;;5032212;28;20496;-74